Time;durP1;ratioP1;P1;durP2;ratioP2;P2;SDS_P1;SDS_P2;PMS_P1;PMS_P2;Temp;Humidity;BMP_temperature;BMP_pressure;BME280_temperature;BME280_humidity;BME280_pressure;Samples;Min_cycle;Max_cycle;Signal;HPM_P1;HPM_P2
2022/12/10 00:01:55;;;;;;;4.32;1.67;;;;;;;;;;5070759;28;20029;-42
2022/12/10 00:04:21;;;;;;;4.68;2.58;;;;;;;;;;5069525;28;20040;-42
2022/12/10 00:06:46;;;;;;;4.93;1.92;;;;;;;;;;5071337;28;20021;-42
2022/12/10 00:09:13;;;;;;;3.10;2.17;;;;;;;;;;5074447;28;20028;-42
2022/12/10 00:11:39;;;;;;;4.40;2.22;;;;;;;;;;5074618;28;20032;-42
2022/12/10 00:14:06;;;;;;;4.00;2.22;;;;;;;;;;5074571;28;20098;-41
2022/12/10 00:16:33;;;;;;;6.20;2.15;;;;;;;;;;5074328;28;20102;-41
2022/12/10 00:18:58;;;;;;;3.22;2.15;;;;;;;;;;5072997;28;20443;-42
2022/12/10 00:21:25;;;;;;;3.20;1.83;;;;;;;;;;5074475;28;20059;-42
2022/12/10 00:23:51;;;;;;;4.82;1.92;;;;;;;;;;5074279;28;20021;-41
2022/12/10 00:26:17;;;;;;;3.58;2.28;;;;;;;;;;5074101;28;20021;-41
2022/12/10 00:28:44;;;;;;;3.80;2.10;;;;;;;;;;5074378;28;20384;-41
2022/12/10 00:31:11;;;;;;;4.78;2.35;;;;;;;;;;5073819;28;20024;-42
2022/12/10 00:33:37;;;;;;;6.00;2.92;;;;;;;;;;5072844;28;20055;-42
2022/12/10 00:36:04;;;;;;;2.88;1.77;;;;;;;;;;5072668;28;20490;-42
2022/12/10 00:38:30;;;;;;;1.65;1.52;;;;;;;;;;5072646;28;20401;-42
2022/12/10 00:40:55;;;;;;;2.67;2.17;;;;;;;;;;5072719;28;20115;-42
2022/12/10 00:43:20;;;;;;;4.22;2.38;;;;;;;;;;5072559;28;20119;-42
2022/12/10 00:45:46;;;;;;;3.42;1.63;;;;;;;;;;5073771;28;20020;-46
2022/12/10 00:48:11;;;;;;;1.80;1.38;;;;;;;;;;5073820;28;20127;-42
2022/12/10 00:50:36;;;;;;;2.90;2.08;;;;;;;;;;5074082;28;20092;-42
2022/12/10 00:53:02;;;;;;;5.40;2.83;;;;;;;;;;5073657;28;20506;-42
2022/12/10 00:55:27;;;;;;;2.28;1.58;;;;;;;;;;5073432;28;20048;-42
2022/12/10 00:57:52;;;;;;;2.53;2.03;;;;;;;;;;5073733;28;20028;-41
2022/12/10 01:00:18;;;;;;;5.38;2.55;;;;;;;;;;5072239;28;20035;-42
2022/12/10 01:02:43;;;;;;;3.65;2.20;;;;;;;;;;5073535;28;20055;-42
2022/12/10 01:05:09;;;;;;;3.75;1.83;;;;;;;;;;5072133;28;20459;-42
2022/12/10 01:07:34;;;;;;;3.58;1.90;;;;;;;;;;5072132;28;20028;-42
2022/12/10 01:09:59;;;;;;;4.40;2.08;;;;;;;;;;5072126;28;20017;-42
2022/12/10 01:12:25;;;;;;;4.65;2.63;;;;;;;;;;5071861;28;20101;-42
2022/12/10 01:14:50;;;;;;;2.17;1.95;;;;;;;;;;5071928;28;20024;-42
2022/12/10 01:17:16;;;;;;;3.55;1.75;;;;;;;;;;5071853;28;20103;-42
2022/12/10 01:19:43;;;;;;;4.05;2.47;;;;;;;;;;5071244;28;20059;-42
2022/12/10 01:22:08;;;;;;;4.50;2.20;;;;;;;;;;5073246;28;20056;-42
2022/12/10 01:24:35;;;;;;;2.55;1.80;;;;;;;;;;5073355;28;20009;-42
2022/12/10 01:27:00;;;;;;;2.55;2.08;;;;;;;;;;5072904;28;20082;-42
2022/12/10 01:29:27;;;;;;;3.17;1.75;;;;;;;;;;5071594;28;20013;-42
2022/12/10 01:31:54;;;;;;;2.78;1.52;;;;;;;;;;5072895;28;20575;-42
2022/12/10 01:34:19;;;;;;;2.63;2.13;;;;;;;;;;5072714;28;20055;-42
2022/12/10 01:36:48;;;;;;;2.55;1.52;;;;;;;;;;5072823;28;20068;-42
2022/12/10 01:39:15;;;;;;;2.58;1.60;;;;;;;;;;5072897;28;20501;-42
2022/12/10 01:41:45;;;;;;;1.88;1.33;;;;;;;;;;5072778;28;20325;-42
2022/12/10 01:44:10;;;;;;;3.47;1.83;;;;;;;;;;5072606;28;20036;-42
2022/12/10 01:46:35;;;;;;;0.80;0.80;;;;;;;;;;5072673;28;20085;-44
2022/12/10 01:49:03;;;;;;;3.58;1.73;;;;;;;;;;5071341;28;20115;-42
2022/12/10 01:51:30;;;;;;;1.75;1.33;;;;;;;;;;5071127;28;20444;-42
2022/12/10 01:53:56;;;;;;;1.60;1.40;;;;;;;;;;5072839;28;20028;-42
2022/12/10 01:56:22;;;;;;;1.38;1.15;;;;;;;;;;5072247;28;20048;-42
2022/12/10 01:58:49;;;;;;;2.15;1.45;;;;;;;;;;5071058;28;20090;-42
2022/12/10 02:01:29;;;;;;;8.40;1.65;;;;;;;;;;5072329;28;20032;-42
2022/12/10 02:04:10;;;;;;;1.83;1.02;;;;;;;;;;5072253;28;20043;-42
2022/12/10 02:07:11;;;;;;;4.55;1.45;;;;;;;;;;5070948;28;20416;-42
2022/12/10 02:09:57;;;;;;;3.03;2.20;;;;;;;;;;5029945;28;20065;-42
2022/12/10 02:12:24;;;;;;;1.50;0.98;;;;;;;;;;5067670;28;20072;-42
2022/12/10 02:14:49;;;;;;;0.75;0.75;;;;;;;;;;5070777;28;20016;-42
2022/12/10 02:17:17;;;;;;;2.08;1.40;;;;;;;;;;5070715;28;20086;-42
2022/12/10 02:19:58;;;;;;;1.25;1.08;;;;;;;;;;5072062;28;20025;-42
2022/12/10 02:22:25;;;;;;;1.95;0.88;;;;;;;;;;5070664;28;20033;-42
2022/12/10 02:24:51;;;;;;;3.22;1.50;;;;;;;;;;5070575;28;20111;-42
2022/12/10 02:27:24;;;;;;;1.10;0.98;;;;;;;;;;5070465;28;20079;-43
2022/12/10 02:29:51;;;;;;;2.63;1.73;;;;;;;;;;5070572;28;20033;-42
2022/12/10 02:32:19;;;;;;;2.08;1.27;;;;;;;;;;5071867;28;20028;-42
2022/12/10 02:34:50;;;;;;;1.35;1.00;;;;;;;;;;5070573;28;20025;-42
2022/12/10 02:37:22;;;;;;;1.30;1.08;;;;;;;;;;5070335;28;20055;-42
2022/12/10 02:39:54;;;;;;;1.05;0.85;;;;;;;;;;5070431;28;20033;-42
2022/12/10 02:42:21;;;;;;;1.20;1.05;;;;;;;;;;5070271;28;20477;-42
2022/12/10 02:44:48;;;;;;;1.25;1.00;;;;;;;;;;5071626;28;20382;-42
2022/12/10 02:47:16;;;;;;;5.82;1.27;;;;;;;;;;5070165;28;20380;-42
2022/12/10 02:49:46;;;;;;;1.95;1.02;;;;;;;;;;5071653;28;20024;-42
2022/12/10 02:52:13;;;;;;;1.73;1.25;;;;;;;;;;5071458;28;20043;-42
2022/12/10 02:54:45;;;;;;;2.92;1.52;;;;;;;;;;5069962;28;20043;-42
2022/12/10 02:57:28;;;;;;;0.95;0.90;;;;;;;;;;5070169;28;20043;-42
2022/12/10 03:00:08;;;;;;;1.63;1.42;;;;;;;;;;5071716;28;20036;-42
2022/12/10 03:02:50;;;;;;;1.52;1.10;;;;;;;;;;5070085;28;20498;-42
2022/12/10 03:05:26;;;;;;;1.30;1.05;;;;;;;;;;5070017;28;20383;-42
2022/12/10 03:08:15;;;;;;;2.30;1.42;;;;;;;;;;5071554;28;20036;-42
2022/12/10 03:10:43;;;;;;;2.30;1.38;;;;;;;;;;5065666;28;20422;-42
2022/12/10 03:13:11;;;;;;;2.15;1.58;;;;;;;;;;5070292;28;20029;-42
2022/12/10 03:15:39;;;;;;;4.40;1.70;;;;;;;;;;5071267;28;20020;-42
2022/12/10 03:18:05;;;;;;;1.10;0.90;;;;;;;;;;5071254;28;20020;-42
2022/12/10 03:20:32;;;;;;;1.33;1.08;;;;;;;;;;5071319;28;20510;-42
2022/12/10 03:22:58;;;;;;;1.75;1.05;;;;;;;;;;5071122;28;20025;-45
2022/12/10 03:25:26;;;;;;;2.03;1.73;;;;;;;;;;5071408;28;20032;-42
2022/12/10 03:27:53;;;;;;;4.00;1.48;;;;;;;;;;5071520;28;20078;-42
2022/12/10 03:30:18;;;;;;;2.50;1.65;;;;;;;;;;5070994;28;20463;-42
2022/12/10 03:32:44;;;;;;;1.40;1.25;;;;;;;;;;5071389;28;20165;-42
2022/12/10 03:35:10;;;;;;;1.17;1.00;;;;;;;;;;5071237;28;20647;-42
2022/12/10 03:37:36;;;;;;;2.45;1.52;;;;;;;;;;5071661;28;20138;-42
2022/12/10 03:40:02;;;;;;;2.85;1.35;;;;;;;;;;5071145;28;20463;-42
2022/12/10 03:42:28;;;;;;;2.50;1.75;;;;;;;;;;5072666;28;20040;-42
2022/12/10 03:44:53;;;;;;;2.60;1.45;;;;;;;;;;5075250;28;20394;-42
2022/12/10 03:47:19;;;;;;;2.50;1.75;;;;;;;;;;5074697;28;20060;-42
2022/12/10 03:49:44;;;;;;;1.80;1.35;;;;;;;;;;5075001;28;20032;-42
2022/12/10 03:52:10;;;;;;;1.42;1.33;;;;;;;;;;5074698;28;20460;-42
2022/12/10 03:54:35;;;;;;;1.20;0.98;;;;;;;;;;5074795;28;20033;-42
2022/12/10 03:57:01;;;;;;;1.45;0.90;;;;;;;;;;5074696;28;20056;-42
2022/12/10 03:59:27;;;;;;;4.75;2.15;;;;;;;;;;5073333;28;20127;-42
2022/12/10 04:01:52;;;;;;;4.03;1.40;;;;;;;;;;5074660;28;20046;-42
2022/12/10 04:04:17;;;;;;;3.33;1.65;;;;;;;;;;5074758;28;20024;-42
2022/12/10 04:06:43;;;;;;;0.90;0.90;;;;;;;;;;5074591;28;20032;-41
2022/12/10 04:09:12;;;;;;;1.60;1.08;;;;;;;;;;5073317;28;20048;-42
2022/12/10 04:11:37;;;;;;;1.85;1.40;;;;;;;;;;5074401;28;20025;-42
2022/12/10 04:16:47;;;;;;;1.60;1.50;;;;;;;;;;5074352;28;20028;-42
2022/12/10 04:19:14;;;;;;;0.75;0.75;;;;;;;;;;5074480;28;20031;-41
2022/12/10 04:27:11;;;;;;;2.13;1.88;;;;;;;;;;5074128;28;20036;-42
2022/12/10 04:29:37;;;;;;;1.48;1.23;;;;;;;;;;5074229;28;20021;-42
2022/12/10 04:32:02;;;;;;;1.20;1.10;;;;;;;;;;5074343;28;20067;-42
2022/12/10 04:34:28;;;;;;;0.80;0.73;;;;;;;;;;5074177;28;20470;-41
2022/12/10 04:36:53;;;;;;;0.77;0.77;;;;;;;;;;5074144;28;20032;-42
2022/12/10 04:39:19;;;;;;;1.17;0.88;;;;;;;;;;5073920;28;20107;-42
2022/12/10 04:41:45;;;;;;;1.65;1.23;;;;;;;;;;5074048;28;20115;-42
2022/12/10 04:44:10;;;;;;;3.72;1.42;;;;;;;;;;5073737;28;20527;-42
2022/12/10 04:46:36;;;;;;;2.10;1.70;;;;;;;;;;5072862;28;20028;-43
2022/12/10 04:49:02;;;;;;;2.85;1.67;;;;;;;;;;5073842;28;20027;-42
2022/12/10 04:51:27;;;;;;;1.20;0.90;;;;;;;;;;5073639;28;20071;-42
2022/12/10 04:53:52;;;;;;;1.63;0.98;;;;;;;;;;5072530;28;20029;-42
2022/12/10 04:56:18;;;;;;;1.67;1.13;;;;;;;;;;5073525;28;20041;-42
2022/12/10 04:58:43;;;;;;;4.43;2.22;;;;;;;;;;5073591;28;20033;-42
2022/12/10 05:01:09;;;;;;;4.85;2.53;;;;;;;;;;5073495;28;20031;-42
2022/12/10 05:03:35;;;;;;;3.60;1.92;;;;;;;;;;5073797;28;20158;-42
2022/12/10 05:06:08;;;;;;;2.10;1.65;;;;;;;;;;5073519;28;20387;-42
2022/12/10 05:08:33;;;;;;;;;;;;;;;;;;5074194;28;20038;-42
2022/12/10 05:11:02;;;;;;;2.30;1.60;;;;;;;;;;5072056;28;19904;-42
2022/12/10 05:13:28;;;;;;;2.33;1.48;;;;;;;;;;5073342;28;20532;-42
2022/12/10 05:15:53;;;;;;;5.28;2.10;;;;;;;;;;5073219;28;20025;-43
2022/12/10 05:18:19;;;;;;;2.85;1.85;;;;;;;;;;5073257;28;20086;-41
2022/12/10 05:20:44;;;;;;;5.00;1.63;;;;;;;;;;5071976;28;20021;-42
2022/12/10 05:23:28;;;;;;;2.05;1.45;;;;;;;;;;5073012;28;20032;-42
2022/12/10 05:26:02;;;;;;;4.07;1.50;;;;;;;;;;5073117;28;20063;-42
2022/12/10 05:28:28;;;;;;;7.82;3.03;;;;;;;;;;5073014;28;20426;-42
2022/12/10 05:30:54;;;;;;;3.97;2.08;;;;;;;;;;5072933;28;20028;-42
2022/12/10 05:33:19;;;;;;;5.20;2.25;;;;;;;;;;5072816;28;20033;-42
2022/12/10 05:36:03;;;;;;;4.95;1.40;;;;;;;;;;5072924;28;20027;-42
2022/12/10 05:38:30;;;;;;;3.67;1.63;;;;;;;;;;5072934;28;20119;-42
2022/12/10 05:40:55;;;;;;;3.38;1.75;;;;;;;;;;5073057;28;20025;-42
2022/12/10 05:43:20;;;;;;;3.65;1.92;;;;;;;;;;5072685;28;20032;-42
2022/12/10 05:45:46;;;;;;;3.60;1.50;;;;;;;;;;5072643;28;20074;-42
2022/12/10 05:48:13;;;;;;;1.92;1.38;;;;;;;;;;5072654;28;20036;-42
2022/12/10 05:50:38;;;;;;;1.88;1.60;;;;;;;;;;5072847;28;20046;-42
2022/12/10 05:53:03;;;;;;;3.22;1.23;;;;;;;;;;5072773;28;20492;-42
2022/12/10 05:55:31;;;;;;;5.35;2.13;;;;;;;;;;5072211;28;20044;-42
2022/12/10 05:57:56;;;;;;;3.35;1.40;;;;;;;;;;5072697;28;20044;-42
2022/12/10 06:00:23;;;;;;;2.60;1.98;;;;;;;;;;5072244;28;20059;-42
2022/12/10 06:02:51;;;;;;;3.22;1.60;;;;;;;;;;5072506;28;20039;-42
2022/12/10 06:05:17;;;;;;;5.82;1.42;;;;;;;;;;5072180;28;20443;-42
2022/12/10 06:07:42;;;;;;;1.92;1.15;;;;;;;;;;5072202;28;20105;-42
2022/12/10 06:10:08;;;;;;;5.70;2.20;;;;;;;;;;5072412;28;20071;-42
2022/12/10 06:12:33;;;;;;;2.03;1.83;;;;;;;;;;5072354;28;20121;-42
2022/12/10 06:14:59;;;;;;;2.80;1.85;;;;;;;;;;5072344;28;20031;-42
2022/12/10 06:17:24;;;;;;;1.70;1.10;;;;;;;;;;5072313;28;20493;-42
2022/12/10 06:19:50;;;;;;;2.67;2.00;;;;;;;;;;5072061;28;20013;-41
2022/12/10 06:22:15;;;;;;;2.67;1.40;;;;;;;;;;5072248;28;20032;-42
2022/12/10 06:24:41;;;;;;;6.05;2.88;;;;;;;;;;5071975;28;20738;-42
2022/12/10 06:27:06;;;;;;;5.43;2.70;;;;;;;;;;5072078;28;20035;-42
2022/12/10 06:29:32;;;;;;;2.08;1.50;;;;;;;;;;5071911;28;20395;-42
2022/12/10 06:31:57;;;;;;;4.75;2.40;;;;;;;;;;5070520;28;20040;-42
2022/12/10 06:34:23;;;;;;;3.47;1.48;;;;;;;;;;5071868;28;20082;-42
2022/12/10 06:36:48;;;;;;;2.80;2.40;;;;;;;;;;5071813;28;20033;-42
2022/12/10 06:39:14;;;;;;;3.35;1.85;;;;;;;;;;5070407;28;20017;-42
2022/12/10 06:41:43;;;;;;;3.83;2.22;;;;;;;;;;5071960;28;20056;-41
2022/12/10 06:44:09;;;;;;;4.10;1.80;;;;;;;;;;5071574;28;20467;-42
2022/12/10 06:46:34;;;;;;;2.70;1.73;;;;;;;;;;5071567;28;20052;-46
2022/12/10 06:48:59;;;;;;;2.97;1.75;;;;;;;;;;5071559;28;20069;-43
2022/12/10 06:51:25;;;;;;;3.35;1.63;;;;;;;;;;5071338;28;20028;-42
2022/12/10 06:53:50;;;;;;;3.42;1.55;;;;;;;;;;5071859;28;20110;-42
2022/12/10 06:56:17;;;;;;;1.92;1.55;;;;;;;;;;5071197;28;20132;-42
2022/12/10 06:58:43;;;;;;;3.75;1.58;;;;;;;;;;5071781;28;20521;-42
2022/12/10 07:01:11;;;;;;;1.98;1.85;;;;;;;;;;5071360;28;20024;-42
2022/12/10 07:03:36;;;;;;;2.80;1.88;;;;;;;;;;5071371;28;20025;-42
2022/12/10 07:06:03;;;;;;;4.00;2.50;;;;;;;;;;5071708;28;20136;-42
2022/12/10 07:08:29;;;;;;;3.85;2.42;;;;;;;;;;5071231;28;20024;-43
2022/12/10 07:10:54;;;;;;;1.75;1.25;;;;;;;;;;5071294;28;20035;-42
2022/12/10 07:13:20;;;;;;;3.05;1.65;;;;;;;;;;5071282;28;20024;-42
2022/12/10 07:15:45;;;;;;;10.52;4.30;;;;;;;;;;5071538;28;20032;-42
2022/12/10 07:18:11;;;;;;;7.53;3.83;;;;;;;;;;5070556;28;20364;-42
2022/12/10 07:20:36;;;;;;;3.47;1.50;;;;;;;;;;5071558;28;20017;-42
2022/12/10 07:23:02;;;;;;;2.05;1.80;;;;;;;;;;5071249;28;20027;-43
2022/12/10 07:25:27;;;;;;;5.18;2.72;;;;;;;;;;5070103;28;20037;-42
2022/12/10 07:27:53;;;;;;;2.78;2.00;;;;;;;;;;5071267;28;20024;-42
2022/12/10 07:30:19;;;;;;;2.22;1.60;;;;;;;;;;5071018;28;20115;-42
2022/12/10 07:32:45;;;;;;;3.47;1.83;;;;;;;;;;5071066;28;20060;-42
2022/12/10 07:35:11;;;;;;;4.40;1.40;;;;;;;;;;5070993;28;20512;-42
2022/12/10 07:37:36;;;;;;;2.38;1.52;;;;;;;;;;5071141;28;20016;-42
2022/12/10 07:40:02;;;;;;;1.80;1.42;;;;;;;;;;5071082;28;20027;-42
2022/12/10 07:42:28;;;;;;;4.10;2.75;;;;;;;;;;5070845;28;20483;-43
2022/12/10 07:44:53;;;;;;;2.90;2.05;;;;;;;;;;5071233;28;20046;-42
2022/12/10 07:47:19;;;;;;;4.78;3.45;;;;;;;;;;5070901;28;20052;-43
2022/12/10 07:49:45;;;;;;;4.15;2.13;;;;;;;;;;5070941;28;20380;-42
2022/12/10 07:52:11;;;;;;;3.50;2.00;;;;;;;;;;5070711;28;20475;-42
2022/12/10 07:54:37;;;;;;;4.60;2.28;;;;;;;;;;5070666;28;20114;-42
2022/12/10 07:57:02;;;;;;;4.43;1.95;;;;;;;;;;5070950;28;20238;-44
2022/12/10 07:59:28;;;;;;;5.80;3.38;;;;;;;;;;5070824;28;20025;-42
2022/12/10 08:01:53;;;;;;;2.60;2.05;;;;;;;;;;5071014;28;20675;-42
2022/12/10 08:04:18;;;;;;;6.35;2.80;;;;;;;;;;5071045;28;20055;-42
2022/12/10 08:06:44;;;;;;;2.97;1.80;;;;;;;;;;5070689;28;20467;-42
2022/12/10 08:09:10;;;;;;;2.22;1.75;;;;;;;;;;5052982;28;20111;-42
2022/12/10 08:11:35;;;;;;;2.47;1.95;;;;;;;;;;5070999;28;20021;-41
2022/12/10 08:14:01;;;;;;;2.92;2.15;;;;;;;;;;5070627;28;20068;-42
2022/12/10 08:16:28;;;;;;;2.90;2.15;;;;;;;;;;5070927;28;20017;-42
2022/12/10 08:18:58;;;;;;;2.90;1.83;;;;;;;;;;5070707;28;20066;-42
2022/12/10 08:21:26;;;;;;;4.13;1.92;;;;;;;;;;5070813;28;20057;-42
2022/12/10 08:23:51;;;;;;;1.23;0.98;;;;;;;;;;5070692;28;20064;-42
2022/12/10 08:26:21;;;;;;;3.53;1.70;;;;;;;;;;5070498;28;20067;-42
2022/12/10 08:28:48;;;;;;;1.92;1.35;;;;;;;;;;5073144;28;20028;-42
2022/12/10 08:31:14;;;;;;;1.60;1.25;;;;;;;;;;5073922;28;20475;-42
2022/12/10 08:33:40;;;;;;;2.70;1.65;;;;;;;;;;5074148;28;20060;-42
2022/12/10 08:36:06;;;;;;;2.00;1.42;;;;;;;;;;5074057;28;20106;-42
2022/12/10 08:38:33;;;;;;;1.58;0.98;;;;;;;;;;5073959;28;20452;-42
2022/12/10 08:40:58;;;;;;;1.42;1.20;;;;;;;;;;5074255;28;20027;-42
2022/12/10 08:43:25;;;;;;;2.03;1.45;;;;;;;;;;5074016;28;20056;-42
2022/12/10 08:45:50;;;;;;;3.22;1.85;;;;;;;;;;5073966;28;20029;-42
2022/12/10 08:48:16;;;;;;;4.43;1.90;;;;;;;;;;5074028;28;20029;-42
2022/12/10 08:50:41;;;;;;;1.83;1.35;;;;;;;;;;5073774;28;20012;-42
2022/12/10 08:53:07;;;;;;;7.28;3.25;;;;;;;;;;5073768;28;20115;-42
2022/12/10 08:55:37;;;;;;;1.92;1.40;;;;;;;;;;5073287;28;20044;-42
2022/12/10 08:58:03;;;;;;;3.40;1.77;;;;;;;;;;5073741;28;20766;-42
2022/12/10 09:00:28;;;;;;;4.35;2.78;;;;;;;;;;5073507;28;20052;-42
2022/12/10 09:02:54;;;;;;;3.35;2.78;;;;;;;;;;5073769;28;20118;-42
2022/12/10 09:05:21;;;;;;;3.58;2.45;;;;;;;;;;5073449;28;20413;-42
2022/12/10 09:07:49;;;;;;;1.73;1.48;;;;;;;;;;5073484;28;20032;-42
2022/12/10 09:10:16;;;;;;;3.08;2.08;;;;;;;;;;5073336;28;20455;-42
2022/12/10 09:12:44;;;;;;;2.80;1.98;;;;;;;;;;5073343;28;20048;-42
2022/12/10 09:15:10;;;;;;;1.88;1.52;;;;;;;;;;5072053;28;20410;-42
2022/12/10 09:17:38;;;;;;;4.32;2.50;;;;;;;;;;5073251;28;20028;-42
2022/12/10 09:20:04;;;;;;;2.80;2.08;;;;;;;;;;5073495;28;20033;-42
2022/12/10 09:22:29;;;;;;;9.38;2.15;;;;;;;;;;5073159;28;20391;-42
2022/12/10 09:24:58;;;;;;;3.25;2.15;;;;;;;;;;5072926;28;20052;-42
2022/12/10 09:27:24;;;;;;;3.30;2.42;;;;;;;;;;5073054;28;20063;-42
2022/12/10 09:29:49;;;;;;;2.03;1.58;;;;;;;;;;5073163;28;20027;-42
2022/12/10 09:32:15;;;;;;;2.95;1.98;;;;;;;;;;5072758;28;20036;-42
2022/12/10 09:34:40;;;;;;;2.40;1.55;;;;;;;;;;5072915;28;20459;-42
2022/12/10 09:37:05;;;;;;;2.25;1.85;;;;;;;;;;5071617;28;20119;-42
2022/12/10 09:39:31;;;;;;;2.63;1.88;;;;;;;;;;5072049;28;20029;-42
2022/12/10 09:42:15;;;;;;;4.53;2.17;;;;;;;;;;5072863;28;20067;-42
2022/12/10 09:44:59;;;;;;;3.05;2.25;;;;;;;;;;5073051;28;20035;-41
2022/12/10 09:47:28;;;;;;;4.95;1.98;;;;;;;;;;5072832;28;20025;-42
2022/12/10 09:49:59;;;;;;;3.30;2.22;;;;;;;;;;5072680;28;20112;-42
2022/12/10 09:52:34;;;;;;;3.22;1.55;;;;;;;;;;5072406;28;20063;-42
2022/12/10 09:55:20;;;;;;;4.03;2.40;;;;;;;;;;5072344;28;20052;-42
2022/12/10 09:57:49;;;;;;;2.97;2.20;;;;;;;;;;5072433;28;20458;-42
2022/12/10 10:00:20;;;;;;;3.33;2.25;;;;;;;;;;5072327;28;20463;-42
2022/12/10 10:02:46;;;;;;;2.50;2.17;;;;;;;;;;5071143;28;20044;-42
2022/12/10 10:05:16;;;;;;;6.28;3.05;;;;;;;;;;5072657;28;20372;-42
2022/12/10 10:07:45;;;;;;;2.10;1.35;;;;;;;;;;5072185;28;20063;-42
2022/12/10 10:10:20;;;;;;;3.50;1.73;;;;;;;;;;5072231;28;20078;-42
2022/12/10 10:12:46;;;;;;;6.95;1.95;;;;;;;;;;5072107;28;20040;-42
2022/12/10 10:15:13;;;;;;;3.90;2.38;;;;;;;;;;5072316;28;20027;-42
2022/12/10 10:17:39;;;;;;;5.00;2.17;;;;;;;;;;5072162;28;20063;-42
2022/12/10 10:20:05;;;;;;;5.38;2.70;;;;;;;;;;5071973;28;20428;-42
2022/12/10 10:22:31;;;;;;;3.53;3.03;;;;;;;;;;5072038;28;20066;-42
2022/12/10 10:24:56;;;;;;;2.00;1.73;;;;;;;;;;5071936;28;20056;-42
2022/12/10 10:27:27;;;;;;;2.38;1.40;;;;;;;;;;5072232;28;20032;-42
2022/12/10 10:29:54;;;;;;;3.45;2.30;;;;;;;;;;5072160;28;20114;-42
2022/12/10 10:32:47;;;;;;;1.77;1.55;;;;;;;;;;5071700;28;20424;-42
2022/12/10 10:35:26;;;;;;;2.78;2.10;;;;;;;;;;5071982;28;20120;-42
2022/12/10 10:37:57;;;;;;;4.78;2.75;;;;;;;;;;5071694;28;20035;-42
2022/12/10 10:40:25;;;;;;;2.47;1.88;;;;;;;;;;5071649;28;20544;-42
2022/12/10 10:42:53;;;;;;;3.03;2.20;;;;;;;;;;5072010;28;20040;-42
2022/12/10 10:45:51;;;;;;;1.58;1.25;;;;;;;;;;5070164;28;20035;-42
2022/12/10 10:48:21;;;;;;;4.72;1.92;;;;;;;;;;5048407;28;20418;-42
2022/12/10 10:50:48;;;;;;;1.60;1.35;;;;;;;;;;5071353;28;20502;-42
2022/12/10 10:53:22;;;;;;;1.50;1.33;;;;;;;;;;5070895;28;20044;-42
2022/12/10 10:55:48;;;;;;;1.33;1.10;;;;;;;;;;5071470;28;20090;-42
2022/12/10 10:58:23;;;;;;;1.33;1.23;;;;;;;;;;5071363;28;20020;-42
2022/12/10 11:01:14;;;;;;;0.75;0.70;;;;;;;;;;5071431;28;20044;-42
2022/12/10 11:03:46;;;;;;;2.78;1.55;;;;;;;;;;5069168;28;20402;-42
2022/12/10 11:06:12;;;;;;;0.77;0.77;;;;;;;;;;5071426;28;20037;-42
2022/12/10 11:08:39;;;;;;;5.88;0.77;;;;;;;;;;5070377;28;20027;-42
2022/12/10 11:11:06;;;;;;;2.00;1.08;;;;;;;;;;5071331;28;20029;-42
2022/12/10 11:13:33;;;;;;;1.45;0.70;;;;;;;;;;5071238;28;20450;-42
2022/12/10 11:16:10;;;;;;;1.45;0.68;;;;;;;;;;5071569;28;20031;-42
2022/12/10 11:18:38;;;;;;;3.15;1.13;;;;;;;;;;5071195;28;20025;-42
2022/12/10 11:21:07;;;;;;;0.43;0.43;;;;;;;;;;5071260;28;20024;-41
2022/12/10 11:23:46;;;;;;;0.50;0.40;;;;;;;;;;5071439;28;20107;-42
2022/12/10 11:26:21;;;;;;;1.08;0.82;;;;;;;;;;5071132;28;20035;-42
2022/12/10 11:29:06;;;;;;;0.50;0.50;;;;;;;;;;5071482;28;20083;-42
2022/12/10 11:31:40;;;;;;;0.50;0.50;;;;;;;;;;5071051;28;20025;-42
2022/12/10 11:34:18;;;;;;;1.38;0.65;;;;;;;;;;5071313;28;20037;-43
2022/12/10 11:36:56;;;;;;;1.05;0.65;;;;;;;;;;5071461;28;20024;-42
2022/12/10 11:39:45;;;;;;;0.70;0.70;;;;;;;;;;5071221;28;20035;-42
2022/12/10 11:42:11;;;;;;;0.70;0.70;;;;;;;;;;5051233;28;20037;-42
2022/12/10 11:44:51;;;;;;;0.70;0.70;;;;;;;;;;5071151;28;20130;-42
2022/12/10 11:47:37;;;;;;;0.40;0.40;;;;;;;;;;5070960;28;20047;-42
2022/12/10 11:50:02;;;;;;;0.70;0.68;;;;;;;;;;5071022;28;20031;-42
2022/12/10 11:52:34;;;;;;;0.77;0.60;;;;;;;;;;5070820;28;20131;-42
2022/12/10 11:55:00;;;;;;;0.52;0.52;;;;;;;;;;5070702;28;20052;-42
2022/12/10 11:57:28;;;;;;;0.90;0.75;;;;;;;;;;5071088;28;20032;-42
2022/12/10 12:00:08;;;;;;;1.15;0.93;;;;;;;;;;5071122;28;20110;-43
2022/12/10 12:02:52;;;;;;;1.05;0.75;;;;;;;;;;5070917;28;20124;-42
2022/12/10 12:05:24;;;;;;;0.73;0.73;;;;;;;;;;5074481;28;20386;-42
2022/12/10 12:07:52;;;;;;;0.50;0.50;;;;;;;;;;5074756;28;20037;-42
2022/12/10 12:10:36;;;;;;;1.00;0.77;;;;;;;;;;5074790;28;20048;-42
2022/12/10 12:13:10;;;;;;;1.60;1.17;;;;;;;;;;5074464;28;20048;-42
2022/12/10 12:15:49;;;;;;;0.52;0.50;;;;;;;;;;5073475;28;20082;-42
2022/12/10 12:18:18;;;;;;;0.25;0.25;;;;;;;;;;5074337;28;20048;-42
2022/12/10 12:20:46;;;;;;;0.40;0.40;;;;;;;;;;5074680;28;20096;-42
2022/12/10 12:23:21;;;;;;;0.47;0.47;;;;;;;;;;5074278;28;20032;-42
2022/12/10 12:25:49;;;;;;;0.40;0.40;;;;;;;;;;5073215;28;20111;-42
2022/12/10 12:28:24;;;;;;;1.00;0.68;;;;;;;;;;5073978;28;20017;-42
2022/12/10 12:30:59;;;;;;;0.30;0.30;;;;;;;;;;5074461;28;20047;-42
2022/12/10 12:33:43;;;;;;;0.60;0.52;;;;;;;;;;5073900;28;20040;-42
2022/12/10 12:36:09;;;;;;;0.85;0.77;;;;;;;;;;5074322;28;20117;-42
2022/12/10 12:38:43;;;;;;;0.85;0.57;;;;;;;;;;5074004;28;20120;-42
2022/12/10 12:41:17;;;;;;;0.40;0.40;;;;;;;;;;5073997;28;20067;-42
2022/12/10 12:43:57;;;;;;;0.50;0.45;;;;;;;;;;5073982;28;20111;-42
2022/12/10 12:46:41;;;;;;;0.45;0.43;;;;;;;;;;5074112;28;20079;-42
2022/12/10 12:49:11;;;;;;;0.52;0.52;;;;;;;;;;5073937;28;20051;-42
2022/12/10 12:51:43;;;;;;;0.90;0.55;;;;;;;;;;5073583;28;20024;-42
2022/12/10 12:54:12;;;;;;;0.65;0.50;;;;;;;;;;5073736;28;20032;-42
2022/12/10 12:56:49;;;;;;;1.33;0.82;;;;;;;;;;5073622;28;20064;-42
2022/12/10 12:59:31;;;;;;;0.70;0.52;;;;;;;;;;5073575;28;20485;-42
2022/12/10 13:01:58;;;;;;;0.88;0.50;;;;;;;;;;5073773;28;20028;-42
2022/12/10 13:04:24;;;;;;;0.32;0.32;;;;;;;;;;5073716;28;20035;-42
2022/12/10 13:07:08;;;;;;;0.57;0.57;;;;;;;;;;5073511;28;20050;-42
2022/12/10 13:09:42;;;;;;;7.63;2.60;;;;;;;;;;5073471;28;20032;-42
2022/12/10 13:12:22;;;;;;;1.70;1.17;;;;;;;;;;5073391;28;20432;-42
2022/12/10 13:14:48;;;;;;;0.68;0.55;;;;;;;;;;5072278;28;20017;-42
2022/12/10 13:17:13;;;;;;;2.28;0.70;;;;;;;;;;5073424;28;20359;-42
2022/12/10 13:19:40;;;;;;;0.52;0.38;;;;;;;;;;5073224;28;20025;-42
2022/12/10 13:22:05;;;;;;;0.38;0.38;;;;;;;;;;5073269;28;20024;-43
2022/12/10 13:24:37;;;;;;;0.20;0.20;;;;;;;;;;5073413;28;20467;-42
2022/12/10 13:27:03;;;;;;;0.43;0.40;;;;;;;;;;5073061;28;20032;-42
2022/12/10 13:29:29;;;;;;;0.73;0.32;;;;;;;;;;5073099;28;20032;-42
2022/12/10 13:32:13;;;;;;;1.48;0.40;;;;;;;;;;5073282;28;20039;-42
2022/12/10 13:34:38;;;;;;;0.40;0.40;;;;;;;;;;5072877;28;20044;-42
2022/12/10 13:37:05;;;;;;;1.15;0.40;;;;;;;;;;5073030;28;20032;-42
2022/12/10 13:39:54;;;;;;;0.40;0.40;;;;;;;;;;5072829;28;20467;-42
2022/12/10 13:45:21;;;;;;;0.40;0.40;;;;;;;;;;5072898;28;20035;-42
2022/12/10 13:48:07;;;;;;;0.30;0.30;;;;;;;;;;5073059;28;20386;-42
2022/12/10 13:50:41;;;;;;;0.20;0.20;;;;;;;;;;5064964;28;20515;-42
2022/12/10 13:53:07;;;;;;;0.40;0.40;;;;;;;;;;5071261;28;20451;-42
2022/12/10 13:55:51;;;;;;;0.50;0.50;;;;;;;;;;5072223;28;20052;-42
2022/12/10 13:58:26;;;;;;;0.63;0.50;;;;;;;;;;5072731;28;20043;-42
2022/12/10 14:00:51;;;;;;;0.30;0.30;;;;;;;;;;5071267;28;20028;-42
2022/12/10 14:03:26;;;;;;;1.05;0.40;;;;;;;;;;5072213;28;20046;-42
2022/12/10 14:06:07;;;;;;;0.30;0.30;;;;;;;;;;5072412;28;20037;-42
2022/12/10 14:08:33;;;;;;;0.50;0.50;;;;;;;;;;5072158;28;20775;-42
2022/12/10 14:10:59;;;;;;;0.35;0.35;;;;;;;;;;5072237;28;20425;-42
2022/12/10 14:13:40;;;;;;;1.50;0.75;;;;;;;;;;5072330;28;20127;-42
2022/12/10 14:16:09;;;;;;;0.40;0.40;;;;;;;;;;5072448;28;20032;-42
2022/12/10 14:18:35;;;;;;;0.20;0.20;;;;;;;;;;5072081;28;20021;-42
2022/12/10 14:21:03;;;;;;;0.90;0.73;;;;;;;;;;5072115;28;20029;-42
2022/12/10 14:23:33;;;;;;;0.50;0.50;;;;;;;;;;5071916;28;20145;-43
2022/12/10 14:26:03;;;;;;;0.38;0.38;;;;;;;;;;5071804;28;20036;-42
2022/12/10 14:28:29;;;;;;;0.30;0.30;;;;;;;;;;5072063;28;20047;-42
2022/12/10 14:30:55;;;;;;;1.38;0.40;;;;;;;;;;5070603;28;20538;-42
2022/12/10 14:33:22;;;;;;;2.05;0.38;;;;;;;;;;5071600;28;20028;-42
2022/12/10 14:35:48;;;;;;;0.30;0.30;;;;;;;;;;5071914;28;20021;-42
2022/12/10 14:38:23;;;;;;;0.30;0.30;;;;;;;;;;5071955;28;20024;-42
2022/12/10 14:40:49;;;;;;;0.40;0.40;;;;;;;;;;5072096;28;20048;-42
2022/12/10 14:43:17;;;;;;;0.25;0.22;;;;;;;;;;5071883;28;20082;-42
2022/12/10 14:46:00;;;;;;;0.40;0.40;;;;;;;;;;5071801;28;20032;-42
2022/12/10 14:48:26;;;;;;;0.45;0.45;;;;;;;;;;5071622;28;20032;-42
2022/12/10 14:50:52;;;;;;;0.30;0.30;;;;;;;;;;5070534;28;20522;-42
2022/12/10 14:53:24;;;;;;;0.17;0.17;;;;;;;;;;5071330;28;20135;-42
2022/12/10 14:55:53;;;;;;;0.30;0.30;;;;;;;;;;5070112;28;20076;-42
2022/12/10 14:58:27;;;;;;;0.30;0.30;;;;;;;;;;5070212;28;20039;-42
2022/12/10 15:00:52;;;;;;;0.40;0.40;;;;;;;;;;5071690;28;20505;-42
2022/12/10 15:03:25;;;;;;;0.65;0.50;;;;;;;;;;5071622;28;20099;-42
2022/12/10 15:05:51;;;;;;;;;;;;;;;;;;5071842;28;20078;-42